Terminal Aerodrome Forecast
Issued by NWS

Home | Current Version | Previous Version | Text Only | Print | Product List | Glossary On
Versions: 1 2 3 4 5 6 7 8 9 10 11 12 13 14 15 16 17 18 19 20 21 22 23 24 25 26 27 28 29 30 31 32 33 34
463
FTUS45 KBOI 081204 RRA
TAFTWF
TAF
KTWF 081204Z 0812/0912 08012KT P6SM SCT250
     FM081600 09014G24KT P6SM BKN050 OVC100
     FM081900 10015G25KT 3SM -SHSN OVC015
     FM082000 10013G23KT 1SM -SN BKN005 OVC009
     FM090500 06006KT P6SM VCSH OVC025=

USA.gov is the U.S. government's official web portal to all federal, state and local government web resources and services.